createdAt,value
2023-03-26T00:38:49.431Z,1999.00
2023-03-26T00:42:49.417Z,2383.00
2023-03-26T00:46:49.381Z,2497.00
2023-03-26T00:50:49.311Z,2524.00
2023-03-26T00:54:49.542Z,2504.00
2023-03-26T00:58:49.772Z,2498.00
2023-03-26T01:02:49.888Z,2497.00
2023-03-26T01:06:49.870Z,2404.00
2023-03-26T01:10:49.829Z,2305.00
2023-03-26T01:14:51.093Z,2365.00
2023-03-26T01:18:49.788Z,2087.00
2023-03-26T01:22:49.790Z,1993.00
2023-03-26T01:26:49.805Z,1912.00
2023-03-26T01:30:49.941Z,1862.00
2023-03-26T01:34:49.876Z,1820.00
2023-03-26T01:38:49.831Z,1853.00
2023-03-26T01:42:49.824Z,1839.00
2023-03-26T01:46:49.906Z,1923.00
2023-03-26T01:50:49.829Z,1886.00
2023-03-26T01:54:49.834Z,1824.00
2023-03-26T01:58:49.849Z,1788.00
2023-03-26T02:02:49.920Z,1835.00
2023-03-26T02:06:49.885Z,1850.00
2023-03-26T02:10:49.948Z,1896.00
2023-03-26T02:14:50.008Z,1946.00
2023-03-26T05:10:54.351Z,2571.00
2023-03-26T05:14:54.377Z,2662.00
2023-03-26T05:18:54.337Z,2673.00
2023-03-26T05:22:54.291Z,2682.00
2023-03-26T05:26:54.265Z,2709.00
2023-03-26T05:30:54.463Z,2844.00
2023-03-26T05:34:54.154Z,2873.00
2023-03-26T05:38:54.167Z,2913.00
2023-03-26T05:42:54.119Z,2905.00
2023-03-26T05:46:54.057Z,2885.00
2023-03-26T05:50:54.191Z,2897.00
2023-03-26T05:54:54.003Z,2866.00
2023-03-26T05:58:54.192Z,2858.00
2023-03-26T06:02:54.263Z,2829.00
2023-03-26T06:06:54.119Z,2793.00
2023-03-26T06:10:54.308Z,2776.00
2023-03-26T06:14:54.041Z,2687.00
2023-03-26T06:18:56.745Z,2641.00
2023-03-26T06:22:53.953Z,2531.00
2023-03-26T06:26:53.952Z,2488.00
2023-03-26T06:30:54.080Z,2523.00
2023-03-26T06:34:53.892Z,2561.00
2023-03-26T06:38:53.841Z,2545.00
2023-03-26T06:43:07.053Z,2548.00
2023-03-26T06:46:54.780Z,2536.00
2023-03-26T06:50:53.950Z,2438.00
2023-03-26T06:54:53.731Z,2460.00
2023-03-26T06:58:53.684Z,2399.00
2023-03-26T07:02:53.656Z,2338.00
2023-03-26T07:06:53.630Z,2318.00
2023-03-26T07:10:53.797Z,2223.00
2023-03-26T07:14:53.516Z,2259.00
2023-03-26T07:18:53.501Z,2266.00
2023-03-26T07:22:53.560Z,2256.00
2023-03-26T07:26:53.488Z,2262.00
2023-03-26T07:30:53.627Z,2176.00
2023-03-26T07:34:53.604Z,2039.00
2023-03-26T07:38:53.761Z,1893.00
2023-03-26T07:42:53.927Z,1862.00
2023-03-26T07:46:54.111Z,1789.00
2023-03-26T07:50:54.442Z,1604.00
2023-03-26T07:54:54.535Z,1537.00
2023-03-26T07:58:54.997Z,1574.00
2023-03-26T08:02:55.016Z,1568.00
2023-03-26T08:06:55.065Z,1607.00
2023-03-26T08:10:55.441Z,1604.00
2023-03-26T08:14:55.418Z,1640.00
2023-03-26T08:18:55.707Z,1547.00
2023-03-26T08:22:55.750Z,1482.00
2023-03-26T08:26:55.951Z,1497.00
2023-03-26T08:30:56.350Z,1419.00
2023-03-26T08:34:56.311Z,1357.00
2023-03-26T08:38:56.442Z,1336.00
2023-03-26T08:42:56.623Z,1419.00
2023-03-26T08:46:56.736Z,1527.00
2023-03-26T08:50:57.052Z,1432.00
2023-03-26T08:54:57.401Z,1399.00
2023-03-26T08:58:57.036Z,1360.00
2023-03-26T09:02:57.167Z,1280.00
2023-03-26T09:06:57.211Z,1250.00
2023-03-26T09:10:57.452Z,1247.00
2023-03-26T09:14:57.443Z,1312.00
2023-03-26T09:18:57.489Z,1159.00
2023-03-26T09:22:57.604Z,1162.00
2023-03-26T09:26:57.682Z,1149.00
2023-03-26T09:30:57.823Z,967.00
2023-03-26T09:34:57.898Z,881.00
2023-03-26T09:38:58.015Z,824.00
2023-03-26T09:42:58.137Z,851.00
2023-03-26T09:46:58.224Z,950.00
2023-03-26T09:50:58.601Z,966.00
2023-03-26T09:54:58.568Z,949.00
2023-03-26T09:58:58.811Z,817.00
2023-03-26T10:02:58.728Z,698.00
2023-03-26T10:06:58.806Z,670.00
2023-03-26T10:10:58.887Z,697.00
2023-03-26T10:14:58.977Z,805.00
2023-03-26T10:18:59.074Z,766.00
2023-03-26T10:22:59.167Z,759.00
2023-03-26T10:27:09.349Z,829.00
2023-03-26T10:31:00.338Z,890.00
2023-03-26T10:34:59.200Z,941.00
2023-03-26T10:38:59.181Z,1064.00
2023-03-26T10:42:59.103Z,1159.00
2023-03-26T10:46:59.140Z,1233.00
2023-03-26T10:50:59.034Z,1256.00
2023-03-26T10:54:59.018Z,1297.00
2023-03-26T10:58:58.982Z,1304.00
2023-03-26T11:02:58.959Z,1347.00
2023-03-26T11:06:58.902Z,1344.00
2023-03-26T11:10:58.865Z,1354.00
2023-03-26T11:14:58.843Z,1333.00
2023-03-26T11:18:58.802Z,1274.00
2023-03-26T11:22:58.768Z,1275.00
2023-03-26T11:27:15.333Z,1417.00
2023-03-26T11:31:00.040Z,1446.00
2023-03-26T11:34:58.721Z,1519.00
2023-03-26T11:38:58.900Z,1527.00
2023-03-26T11:42:58.882Z,1534.00
2023-03-26T11:46:58.974Z,1587.00
2023-03-26T11:50:58.824Z,1605.00
2023-03-26T11:54:58.744Z,1604.00
2023-03-26T11:58:58.706Z,1604.00
2023-03-26T12:02:58.751Z,1642.00
2023-03-26T12:06:58.677Z,1546.00
2023-03-26T12:10:58.600Z,1427.00
2023-03-26T12:14:58.551Z,1343.00
2023-03-26T12:18:58.613Z,1370.00
2023-03-26T12:22:58.575Z,1475.00
2023-03-26T12:26:58.525Z,1447.00
2023-03-26T12:30:58.505Z,1461.00
2023-03-26T12:34:58.500Z,1441.00
2023-03-26T12:39:43.646Z,1482.00
2023-03-26T12:44:48.504Z,1482.00
2023-03-26T12:47:56.208Z,1389.00
2023-03-26T12:50:59.385Z,1351.00
2023-03-26T12:54:58.309Z,1374.00
2023-03-26T12:58:58.283Z,1327.00
2023-03-26T13:02:58.330Z,1235.00
2023-03-26T13:07:01.822Z,1041.00
2023-03-26T13:10:58.317Z,880.00
2023-03-26T13:14:58.143Z,664.00
2023-03-26T13:18:58.110Z,665.00
2023-03-26T13:22:58.038Z,514.00
2023-03-26T13:26:58.025Z,505.00
2023-03-26T13:30:58.228Z,544.00
2023-03-26T13:34:58.066Z,613.00
2023-03-26T13:38:59.657Z,682.00
2023-03-26T13:42:58.125Z,709.00
2023-03-26T13:46:58.096Z,741.00
2023-03-26T13:50:58.061Z,860.00
2023-03-26T13:54:58.019Z,823.00
2023-03-26T13:58:57.991Z,931.00
2023-03-26T14:02:58.124Z,1182.00
2023-03-26T14:06:57.927Z,1327.00
2023-03-26T14:10:57.879Z,1316.00
2023-03-26T14:14:57.843Z,1218.00
2023-03-26T14:18:57.803Z,1184.00
2023-03-26T14:22:57.814Z,1174.00
2023-03-26T14:26:57.703Z,1193.00
2023-03-26T14:30:57.997Z,1420.00
2023-03-26T14:34:57.679Z,1539.00
2023-03-26T14:38:57.678Z,1630.00
2023-03-26T14:42:57.602Z,1686.00
2023-03-26T14:46:57.592Z,1782.00
2023-03-26T14:50:57.614Z,1822.00
2023-03-26T14:54:57.485Z,1774.00
2023-03-26T14:58:57.440Z,1744.00
2023-03-26T15:02:57.463Z,1588.00
2023-03-26T15:06:57.363Z,1680.00
2023-03-26T15:10:57.645Z,1719.00
2023-03-26T15:14:58.135Z,1748.00
2023-03-26T15:18:57.303Z,1694.00
2023-03-26T15:22:57.229Z,1686.00
2023-03-26T15:26:57.202Z,1680.00
2023-03-26T15:30:57.310Z,1750.00
2023-03-26T15:34:57.131Z,1778.00
2023-03-26T15:38:57.080Z,1822.00
2023-03-26T15:42:57.042Z,1912.00
2023-03-26T15:46:57.044Z,1884.00
2023-03-26T15:50:57.180Z,1863.00
2023-03-26T15:54:56.926Z,1862.00
2023-03-26T15:58:56.888Z,1991.00
2023-03-26T16:02:56.872Z,1989.00
2023-03-26T16:06:56.844Z,1962.00
2023-03-26T16:10:57.010Z,1970.00
2023-03-26T16:14:56.753Z,2195.00
2023-03-26T16:18:56.730Z,2233.00
2023-03-26T16:22:56.695Z,2321.00
2023-03-26T16:26:56.704Z,2275.00
2023-03-26T16:30:57.165Z,2247.00
2023-03-26T16:34:56.805Z,2209.00
2023-03-26T16:38:56.808Z,2142.00
2023-03-26T16:42:56.833Z,2085.00
2023-03-26T16:46:56.909Z,2095.00
2023-03-26T16:50:57.159Z,2055.00
2023-03-26T16:54:56.988Z,2102.00
2023-03-26T16:58:57.417Z,2148.00
2023-03-26T17:02:57.205Z,2125.00
2023-03-26T17:06:57.108Z,2141.00
2023-03-26T17:10:57.338Z,2145.00
2023-03-26T17:14:57.232Z,2157.00
2023-03-26T17:18:57.578Z,2104.00
2023-03-26T17:22:57.339Z,2078.00
2023-03-26T17:26:57.389Z,2078.00
2023-03-26T17:30:57.693Z,2108.00
2023-03-26T17:34:57.546Z,2226.00
2023-03-26T17:38:57.603Z,2162.00
2023-03-26T17:42:57.657Z,2176.00
2023-03-26T17:46:57.781Z,2219.00
2023-03-26T17:50:58.301Z,2217.00
2023-03-26T17:54:57.947Z,2220.00
2023-03-26T17:58:58.078Z,2210.00
2023-03-26T18:02:59.126Z,2199.00
2023-03-26T18:06:58.038Z,2124.00
2023-03-26T18:10:58.004Z,2014.00
2023-03-26T18:14:58.063Z,1993.00
2023-03-26T18:18:58.186Z,1938.00
2023-03-26T18:22:58.338Z,1885.00
2023-03-26T18:26:58.542Z,1913.00
2023-03-26T18:30:58.693Z,2075.00
2023-03-26T18:34:58.862Z,2180.00
2023-03-26T18:38:59.044Z,2088.00
2023-03-26T18:42:59.208Z,2085.00
2023-03-26T18:46:59.347Z,2074.00
2023-03-26T18:50:59.499Z,2025.00
2023-03-26T18:55:00.451Z,1969.00
2023-03-26T18:58:59.413Z,1911.00
2023-03-26T19:02:59.501Z,2010.00
2023-03-26T19:06:59.682Z,1951.00
2023-03-26T19:10:59.851Z,1922.00
2023-03-26T19:15:00.106Z,1987.00
2023-03-26T19:19:00.271Z,2010.00
2023-03-26T19:23:00.446Z,1971.00
2023-03-26T19:27:00.680Z,1979.00
2023-03-26T19:31:00.909Z,1971.00
2023-03-26T19:35:01.047Z,1980.00
2023-03-26T19:39:01.634Z,1916.00
2023-03-26T19:43:02.690Z,1869.00
2023-03-26T19:47:01.543Z,1816.00
2023-03-26T19:51:01.380Z,1802.00
2023-03-26T19:55:01.391Z,1787.00
2023-03-26T19:59:01.306Z,1778.00
2023-03-26T20:03:01.330Z,1836.00
2023-03-26T20:07:01.290Z,1844.00
2023-03-26T20:11:01.181Z,1889.00
2023-03-26T20:15:01.161Z,1901.00
2023-03-26T20:19:01.123Z,1888.00
2023-03-26T20:23:01.081Z,1919.00
2023-03-26T20:27:01.162Z,1892.00
2023-03-26T20:31:01.324Z,1915.00
2023-03-26T20:35:01.537Z,1938.00
2023-03-26T20:39:01.695Z,1917.00
2023-03-26T20:43:01.908Z,1915.00
2023-03-26T20:47:02.192Z,1776.00
2023-03-26T20:51:02.361Z,1773.00
2023-03-26T20:55:02.521Z,1787.00
2023-03-26T20:59:10.342Z,1773.00
2023-03-26T21:03:03.771Z,1681.00
2023-03-26T21:07:11.063Z,1782.00
2023-03-26T21:11:03.602Z,1817.00
2023-03-26T21:15:05.183Z,1888.00
2023-03-26T21:19:03.572Z,1911.00
2023-03-26T21:23:02.542Z,1936.00
2023-03-26T21:27:02.794Z,1811.00
2023-03-26T21:31:03.016Z,1888.00
2023-03-26T21:35:02.738Z,1876.00
2023-03-26T21:39:02.671Z,1801.00
2023-03-26T21:43:02.622Z,1850.00
2023-03-26T21:47:02.607Z,1853.00
2023-03-26T21:51:02.592Z,1859.00
2023-03-26T21:55:02.498Z,1901.00
2023-03-26T21:59:02.483Z,1929.00
2023-03-26T22:03:02.698Z,1928.00
2023-03-26T22:07:02.518Z,1825.00
2023-03-26T22:11:02.456Z,1815.00
2023-03-26T22:15:02.461Z,1817.00
2023-03-26T22:19:02.421Z,1743.00
2023-03-26T22:23:02.386Z,1742.00
2023-03-26T22:27:02.366Z,1735.00
2023-03-26T22:31:02.347Z,1734.00
2023-03-26T22:35:02.467Z,1733.00
2023-03-26T22:39:02.448Z,1614.00
2023-03-26T22:43:02.478Z,1540.00
2023-03-26T22:47:02.406Z,1540.00
2023-03-26T22:51:02.328Z,1427.00
2023-03-26T22:55:02.303Z,1369.00
2023-03-26T22:59:02.322Z,1325.00
2023-03-26T23:03:02.105Z,1361.00
2023-03-26T23:07:02.018Z,1374.00
2023-03-26T23:11:01.938Z,1408.00
2023-03-26T23:15:01.966Z,1425.00
2023-03-26T23:19:01.898Z,1444.00
2023-03-26T23:23:01.852Z,1470.00
2023-03-26T23:27:01.888Z,1489.00
2023-03-26T23:31:01.808Z,1504.00
2023-03-26T23:35:01.767Z,1567.00
2023-03-26T23:39:01.700Z,1553.00
2023-03-26T23:43:01.710Z,1470.00
2023-03-26T23:47:01.659Z,1540.00
2023-03-26T23:51:03.385Z,1540.00
2023-03-26T23:55:01.584Z,1557.00
2023-03-26T23:59:01.564Z,1576.00
